Bearsdale, Illinois
Current Conditions -  °F | °C
As of 11:54 PM on Monday 20 Oct 2014 (Local Time) from KDEC Reporting Station
Clear Clear  
Wind Chill: 46°   Ceiling: Unl
Heat Index: 49°   Visibility: 10mi
Dew Point: 43°   Wind: 7mph
Humidity: 80%   Direction: 350°N
Pressure: 30.01"   Gusts: NA
Location:  39.9062°N, 88.9645°W
Report Text: KDEC 210454Z AUTO 35006KT 10SM CLR 09/06 A3001 RMK AO2 SLP160 T00940061 TSNO
Loading
Personal Weather Stations






























Interactive Weather Map
Tropical Storm Tracking
New forecast layout! Learn more

10-Day Weather Forecast

Advertisements
Track Severe Weather on mobile